createdAt,value
2023-05-21T00:02:35.934Z,15.00
2023-05-21T00:06:44.613Z,14.90
2023-05-21T00:10:53.260Z,14.90
2023-05-21T00:15:02.551Z,14.90
2023-05-21T00:19:11.293Z,14.90
2023-05-21T00:23:20.021Z,14.80
2023-05-21T00:27:28.766Z,14.70
2023-05-21T00:31:56.798Z,14.60
2023-05-21T00:36:06.268Z,14.60
2023-05-21T00:40:15.343Z,14.60
2023-05-21T00:44:25.348Z,14.50
2023-05-21T00:48:34.244Z,14.40
2023-05-21T00:52:45.610Z,14.40
2023-05-21T00:56:54.437Z,14.40
2023-05-21T01:01:03.608Z,14.30
2023-05-21T01:05:13.073Z,14.20
2023-05-21T01:09:21.972Z,14.20
2023-05-21T01:13:31.960Z,14.20
2023-05-21T01:17:41.534Z,14.20
2023-05-21T01:21:56.317Z,14.20
2023-05-21T01:26:04.978Z,14.30
2023-05-21T01:30:15.253Z,14.30
2023-05-21T01:34:27.165Z,14.30
2023-05-21T01:38:41.403Z,14.30
2023-05-21T01:42:50.438Z,14.20
2023-05-21T01:47:00.232Z,14.20
2023-05-21T01:51:09.449Z,14.20
2023-05-21T01:55:18.421Z,14.10
2023-05-21T01:59:27.792Z,14.10
2023-05-21T02:03:36.698Z,14.10
2023-05-21T02:07:47.268Z,14.10
2023-05-21T02:11:56.555Z,14.00
2023-05-21T02:16:08.617Z,14.00
2023-05-21T02:20:17.597Z,14.00
2023-05-21T02:24:26.237Z,14.00
2023-05-21T02:28:36.368Z,13.90
2023-05-21T02:32:45.650Z,14.00
2023-05-21T02:36:54.753Z,14.00
2023-05-21T02:41:03.516Z,13.90
2023-05-21T02:45:13.412Z,13.90
2023-05-21T02:49:21.998Z,13.80
2023-05-21T02:53:31.012Z,13.90
2023-05-21T02:57:39.673Z,13.90
2023-05-21T03:01:48.424Z,13.90
2023-05-21T03:05:58.682Z,13.90
2023-05-21T03:10:08.248Z,13.90
2023-05-21T03:14:16.968Z,13.80
2023-05-21T03:18:25.700Z,13.70
2023-05-21T03:22:34.432Z,13.70
2023-05-21T03:26:43.146Z,13.60
2023-05-21T03:30:52.167Z,13.60
2023-05-21T03:35:01.240Z,13.50
2023-05-21T03:39:09.929Z,13.60
2023-05-21T03:43:18.601Z,13.60
2023-05-21T03:47:27.289Z,13.70
2023-05-21T03:51:35.971Z,13.70
2023-05-21T03:55:44.639Z,13.70
2023-05-21T03:59:53.349Z,13.70
2023-05-21T04:04:02.305Z,13.70
2023-05-21T04:08:11.285Z,13.70
2023-05-21T04:12:22.784Z,13.70
2023-05-21T04:16:33.328Z,13.60
2023-05-21T04:20:41.957Z,13.50
2023-05-21T04:24:50.598Z,13.50
2023-05-21T04:28:59.366Z,13.50
2023-05-21T04:33:09.999Z,13.50
2023-05-21T04:37:18.733Z,13.50
2023-05-21T04:41:28.408Z,13.60
2023-05-21T04:45:37.589Z,13.50
2023-05-21T04:49:48.446Z,13.50
2023-05-21T04:53:58.136Z,13.60
2023-05-21T04:58:12.655Z,13.60
2023-05-21T05:02:21.369Z,13.60
2023-05-21T05:06:30.099Z,13.70
2023-05-21T05:10:38.743Z,13.70
2023-05-21T05:14:47.388Z,13.70
2023-05-21T05:18:57.574Z,13.70
2023-05-21T05:23:06.690Z,13.70
2023-05-21T05:27:15.488Z,13.80
2023-05-21T05:31:24.274Z,14.00
2023-05-21T05:35:38.064Z,14.00
2023-05-21T05:39:57.045Z,14.10
2023-05-21T05:44:05.781Z,14.10
2023-05-21T05:57:21.955Z,14.30
2023-05-21T06:01:32.092Z,14.40
2023-05-21T06:05:41.006Z,14.40
2023-05-21T06:09:49.844Z,14.50
2023-05-21T06:14:00.232Z,14.50
2023-05-21T06:18:08.952Z,14.60
2023-05-21T06:22:17.758Z,14.70
2023-05-21T06:26:26.659Z,14.80
2023-05-21T06:30:35.378Z,14.90
2023-05-21T06:34:44.057Z,14.90
2023-05-21T06:38:52.826Z,15.00
2023-05-21T06:43:03.290Z,15.10
2023-05-21T06:47:11.981Z,15.20
2023-05-21T06:51:20.748Z,15.30
2023-05-21T06:55:29.436Z,15.30
2023-05-21T06:59:38.173Z,15.40
2023-05-21T07:03:46.881Z,15.50
2023-05-21T07:07:55.613Z,15.60
2023-05-21T07:12:05.565Z,15.60
2023-05-21T07:16:14.252Z,15.80
2023-05-21T07:20:22.868Z,15.80
2023-05-21T07:24:31.544Z,15.80
2023-05-21T07:28:40.318Z,15.90
2023-05-21T07:32:49.022Z,15.90
2023-05-21T07:36:57.718Z,16.00
2023-05-21T07:41:06.360Z,16.10
2023-05-21T07:45:15.134Z,16.20
2023-05-21T07:49:23.794Z,16.30
2023-05-21T07:53:33.307Z,16.30
2023-05-21T07:57:42.029Z,16.50
2023-05-21T08:01:50.710Z,16.50
2023-05-21T08:05:59.369Z,16.60
2023-05-21T08:10:09.052Z,16.60
2023-05-21T08:14:17.794Z,16.70
2023-05-21T08:18:27.347Z,16.90
2023-05-21T08:22:36.150Z,17.00
2023-05-21T08:26:48.144Z,17.10
2023-05-21T08:30:57.045Z,17.30
2023-05-21T08:35:07.258Z,17.40
2023-05-21T08:39:16.013Z,17.40
2023-05-21T08:43:26.891Z,17.50
2023-05-21T08:47:38.460Z,17.60
2023-05-21T08:51:50.152Z,17.60
2023-05-21T08:55:58.817Z,17.70
2023-05-21T09:00:08.670Z,17.80
2023-05-21T09:04:21.607Z,17.80
2023-05-21T09:08:32.795Z,17.90
2023-05-21T09:12:41.528Z,18.00
2023-05-21T09:16:50.258Z,18.00
2023-05-21T09:20:59.932Z,18.10
2023-05-21T09:25:10.057Z,18.10
2023-05-21T09:29:18.868Z,18.10
2023-05-21T09:33:32.191Z,18.20
2023-05-21T09:37:46.196Z,18.20
2023-05-21T09:41:56.439Z,18.20
2023-05-21T09:46:05.330Z,18.30
2023-05-21T09:50:17.126Z,18.40
2023-05-21T09:54:33.631Z,18.50
2023-05-21T09:58:42.413Z,18.70
2023-05-21T10:02:53.386Z,18.90
2023-05-21T10:07:23.785Z,19.10
2023-05-21T10:11:33.030Z,19.40
2023-05-21T10:15:50.903Z,19.60
2023-05-21T10:20:01.646Z,19.80
2023-05-21T10:24:11.481Z,19.90
2023-05-21T10:28:21.567Z,20.00
2023-05-21T10:32:31.188Z,20.10
2023-05-21T10:36:40.979Z,20.20
2023-05-21T10:40:50.924Z,20.30
2023-05-21T10:45:08.685Z,20.20
2023-05-21T10:49:29.024Z,20.10
2023-05-21T10:53:47.093Z,20.00
2023-05-21T10:57:58.835Z,20.50
2023-05-21T11:02:08.698Z,20.90
2023-05-21T11:06:27.572Z,21.30
2023-05-21T11:10:44.474Z,21.50
2023-05-21T11:14:59.302Z,21.90
2023-05-21T11:19:08.068Z,22.10
2023-05-21T11:23:16.733Z,21.90
2023-05-21T11:27:33.640Z,21.90
2023-05-21T11:31:47.555Z,21.70
2023-05-21T11:36:00.822Z,21.40
2023-05-21T11:40:28.232Z,21.30
2023-05-21T11:44:44.503Z,21.30
2023-05-21T11:48:54.886Z,21.20
2023-05-21T11:53:03.818Z,21.40
2023-05-21T11:57:14.877Z,21.60
2023-05-21T12:01:26.566Z,21.70
2023-05-21T12:05:51.594Z,22.10
2023-05-21T12:10:00.900Z,22.50
2023-05-21T12:14:11.373Z,22.70
2023-05-21T12:18:20.095Z,22.80
2023-05-21T12:22:29.891Z,22.90
2023-05-21T12:26:38.916Z,23.00
2023-05-21T12:30:47.762Z,23.10
2023-05-21T12:34:57.776Z,23.00
2023-05-21T12:39:09.952Z,22.90
2023-05-21T12:43:18.237Z,22.80
2023-05-21T12:47:28.751Z,23.00
2023-05-21T12:51:40.800Z,23.00
2023-05-21T12:55:49.639Z,23.30
2023-05-21T13:00:00.550Z,23.60
2023-05-21T13:04:09.304Z,23.60
2023-05-21T13:08:18.280Z,23.70
2023-05-21T13:12:29.048Z,23.90
2023-05-21T13:16:37.716Z,24.10
2023-05-21T13:20:46.381Z,24.20
2023-05-21T13:24:55.054Z,24.20
2023-05-21T13:29:03.740Z,24.10
2023-05-21T13:33:13.163Z,24.10
2023-05-21T13:37:21.929Z,24.20
2023-05-21T13:41:30.687Z,24.30
2023-05-21T13:45:39.548Z,24.50
2023-05-21T13:49:48.201Z,24.60
2023-05-21T13:53:57.021Z,24.60
2023-05-21T13:58:05.982Z,24.60
2023-05-21T14:02:14.681Z,24.50
2023-05-21T14:06:23.333Z,24.50
2023-05-21T14:10:32.080Z,24.50
2023-05-21T14:14:40.815Z,24.70
2023-05-21T14:18:49.873Z,24.80
2023-05-21T14:22:58.593Z,24.90
2023-05-21T14:27:07.283Z,25.10
2023-05-21T14:31:16.327Z,25.30
2023-05-21T14:35:24.990Z,25.40
2023-05-21T14:39:33.709Z,25.30
2023-05-21T14:43:42.378Z,25.40
2023-05-21T14:47:51.111Z,25.40
2023-05-21T14:51:59.807Z,25.60
2023-05-21T14:56:08.660Z,25.60
2023-05-21T15:00:17.490Z,25.50
2023-05-21T15:04:26.528Z,25.60
2023-05-21T15:08:35.537Z,25.50
2023-05-21T15:12:44.315Z,25.40
2023-05-21T15:16:53.069Z,25.30
2023-05-21T15:21:01.742Z,25.20
2023-05-21T15:25:10.877Z,25.30
2023-05-21T15:29:19.593Z,25.20
2023-05-21T15:33:28.260Z,25.20
2023-05-21T15:37:37.112Z,25.10
2023-05-21T15:41:45.888Z,24.90
2023-05-21T15:45:54.565Z,24.90
2023-05-21T15:50:03.218Z,24.80
2023-05-21T15:54:12.058Z,24.50
2023-05-21T15:58:20.822Z,24.30
2023-05-21T16:02:29.531Z,24.20
2023-05-21T16:06:39.408Z,24.10
2023-05-21T16:11:04.287Z,24.10
2023-05-21T16:15:13.058Z,24.10
2023-05-21T16:19:22.096Z,24.10
2023-05-21T16:23:31.177Z,24.10
2023-05-21T16:27:39.811Z,24.10
2023-05-21T16:31:50.028Z,24.10
2023-05-21T16:35:58.614Z,24.10
2023-05-21T16:40:09.056Z,24.00
2023-05-21T16:44:17.727Z,24.10
2023-05-21T16:48:32.755Z,24.20
2023-05-21T16:52:41.733Z,24.30
2023-05-21T16:56:50.497Z,24.30
2023-05-21T17:00:59.199Z,24.30
2023-05-21T17:05:28.808Z,24.30
2023-05-21T17:09:37.647Z,24.40
2023-05-21T17:13:48.263Z,24.30
2023-05-21T17:17:56.960Z,24.20
2023-05-21T17:22:05.752Z,24.10
2023-05-21T17:30:53.639Z,23.90
2023-05-21T17:35:07.085Z,23.90
2023-05-21T17:39:20.285Z,23.80
2023-05-21T17:43:42.423Z,23.70
2023-05-21T17:47:50.118Z,23.60
2023-05-21T17:52:02.241Z,23.50
2023-05-21T17:56:12.385Z,23.40
2023-05-21T18:00:35.995Z,23.40
2023-05-21T18:04:45.950Z,23.40
2023-05-21T18:09:04.654Z,23.40
2023-05-21T18:13:21.517Z,23.40
2023-05-21T18:17:33.006Z,23.30
2023-05-21T18:21:46.515Z,23.30
2023-05-21T18:26:13.587Z,23.20
2023-05-21T18:30:23.746Z,23.20
2023-05-21T18:34:33.831Z,23.10
2023-05-21T18:38:43.836Z,23.00
2023-05-21T18:43:00.996Z,22.90
2023-05-21T18:47:14.414Z,22.90
2023-05-21T18:51:29.703Z,22.70
2023-05-21T18:55:40.846Z,22.60
2023-05-21T19:00:00.051Z,22.50
2023-05-21T19:04:23.542Z,22.40
2023-05-21T19:08:31.265Z,22.30
2023-05-21T19:17:25.036Z,22.10
2023-05-21T19:21:39.024Z,22.00
2023-05-21T19:25:51.469Z,21.90
2023-05-21T19:30:02.457Z,21.90
2023-05-21T19:34:19.206Z,21.80
2023-05-21T19:38:33.011Z,21.80
2023-05-21T19:42:48.712Z,21.80
2023-05-21T19:46:58.674Z,21.80
2023-05-21T19:51:29.466Z,21.80
2023-05-21T19:55:40.608Z,21.70
2023-05-21T19:59:56.515Z,21.60
2023-05-21T20:04:09.940Z,21.50
2023-05-21T20:08:24.109Z,21.50
2023-05-21T20:12:43.500Z,21.50
2023-05-21T20:16:56.285Z,21.50
2023-05-21T20:21:10.320Z,21.40
2023-05-21T20:25:22.591Z,21.10
2023-05-21T20:29:42.175Z,20.70
2023-05-21T20:33:59.919Z,20.40
2023-05-21T20:38:16.240Z,20.40
2023-05-21T20:42:35.468Z,20.40
2023-05-21T20:46:50.427Z,20.40
2023-05-21T20:51:12.839Z,20.30
2023-05-21T20:55:25.756Z,20.10
2023-05-21T20:59:42.045Z,20.10
2023-05-21T21:04:01.728Z,19.90
2023-05-21T21:08:12.933Z,19.70
2023-05-21T21:12:33.333Z,19.80
2023-05-21T21:16:51.008Z,19.70
2023-05-21T21:21:04.225Z,19.80
2023-05-21T21:25:15.807Z,19.80
2023-05-21T21:29:30.340Z,19.80
2023-05-21T21:33:44.988Z,19.70
2023-05-21T21:37:58.100Z,19.30
2023-05-21T21:42:10.697Z,19.00
2023-05-21T21:51:23.484Z,18.70
2023-05-21T21:55:33.235Z,18.70
2023-05-21T21:59:45.241Z,18.70
2023-05-21T22:04:02.483Z,18.70
2023-05-21T22:08:12.417Z,18.80
2023-05-21T22:12:29.151Z,18.80
2023-05-21T22:16:39.076Z,18.60
2023-05-21T22:20:50.484Z,18.50
2023-05-21T22:25:02.309Z,18.40
2023-05-21T22:29:12.800Z,18.50
2023-05-21T22:33:21.562Z,18.70
2023-05-21T22:37:30.269Z,18.70
2023-05-21T22:41:38.955Z,18.50
2023-05-21T22:45:47.628Z,18.50
2023-05-21T22:49:58.169Z,18.40
2023-05-21T22:54:06.840Z,18.20
2023-05-21T22:58:15.480Z,18.20
2023-05-21T23:02:24.210Z,18.20
2023-05-21T23:06:33.619Z,18.20
2023-05-21T23:10:42.268Z,18.20
2023-05-21T23:14:51.151Z,18.20
2023-05-21T23:19:00.017Z,18.20
2023-05-21T23:23:08.735Z,18.20
2023-05-21T23:27:17.668Z,18.20
2023-05-21T23:31:26.567Z,18.20
2023-05-21T23:35:35.213Z,18.30
2023-05-21T23:39:45.495Z,18.30
2023-05-21T23:43:54.604Z,18.30
2023-05-21T23:48:03.352Z,18.30
2023-05-21T23:52:13.506Z,18.30
2023-05-21T23:56:22.612Z,18.10
